sensor_id;sensor_type;location;lat;lon;timestamp;temperature;humidity
54960;DHT22;40860;51.710;8.736;2023-05-06T00:00:02;12.40;99.90
54960;DHT22;40860;51.710;8.736;2023-05-06T00:04:12;12.40;99.90
54960;DHT22;40860;51.710;8.736;2023-05-06T00:08:17;12.40;99.90
54960;DHT22;40860;51.710;8.736;2023-05-06T00:12:20;12.40;99.90
54960;DHT22;40860;51.710;8.736;2023-05-06T00:16:22;12.30;99.90
54960;DHT22;40860;51.710;8.736;2023-05-06T00:20:26;12.30;99.90
54960;DHT22;40860;51.710;8.736;2023-05-06T00:24:30;12.40;99.90
54960;DHT22;40860;51.710;8.736;2023-05-06T00:28:33;12.40;99.90
54960;DHT22;40860;51.710;8.736;2023-05-06T00:32:36;12.40;99.90
54960;DHT22;40860;51.710;8.736;2023-05-06T00:36:39;12.40;99.90
54960;DHT22;40860;51.710;8.736;2023-05-06T00:40:44;12.40;99.90
54960;DHT22;40860;51.710;8.736;2023-05-06T00:44:47;12.30;99.90
54960;DHT22;40860;51.710;8.736;2023-05-06T00:48:50;12.30;99.90
54960;DHT22;40860;51.710;8.736;2023-05-06T00:52:57;12.20;99.90
54960;DHT22;40860;51.710;8.736;2023-05-06T00:57:02;12.20;99.90
54960;DHT22;40860;51.710;8.736;2023-05-06T01:01:05;12.20;99.90
54960;DHT22;40860;51.710;8.736;2023-05-06T01:05:09;12.30;99.90
54960;DHT22;40860;51.710;8.736;2023-05-06T01:09:18;12.30;99.90
54960;DHT22;40860;51.710;8.736;2023-05-06T01:13:34;12.30;99.90
54960;DHT22;40860;51.710;8.736;2023-05-06T01:17:42;12.30;99.90
54960;DHT22;40860;51.710;8.736;2023-05-06T01:21:48;12.30;99.90
54960;DHT22;40860;51.710;8.736;2023-05-06T01:25:53;12.30;99.90
54960;DHT22;40860;51.710;8.736;2023-05-06T01:29:57;12.30;99.90
54960;DHT22;40860;51.710;8.736;2023-05-06T01:34:14;12.30;99.90
54960;DHT22;40860;51.710;8.736;2023-05-06T01:38:26;12.30;99.90
54960;DHT22;40860;51.710;8.736;2023-05-06T01:42:33;12.30;99.90
54960;DHT22;40860;51.710;8.736;2023-05-06T01:46:36;12.30;99.90
54960;DHT22;40860;51.710;8.736;2023-05-06T01:50:40;12.30;99.90
54960;DHT22;40860;51.710;8.736;2023-05-06T01:54:43;12.30;99.90
54960;DHT22;40860;51.710;8.736;2023-05-06T01:58:47;12.30;99.90
54960;DHT22;40860;51.710;8.736;2023-05-06T02:02:50;12.30;99.90
54960;DHT22;40860;51.710;8.736;2023-05-06T02:06:53;12.30;99.90
54960;DHT22;40860;51.710;8.736;2023-05-06T02:10:56;12.30;99.90
54960;DHT22;40860;51.710;8.736;2023-05-06T02:15:00;12.30;99.90
54960;DHT22;40860;51.710;8.736;2023-05-06T02:19:03;12.20;99.90
54960;DHT22;40860;51.710;8.736;2023-05-06T02:23:07;12.20;99.90
54960;DHT22;40860;51.710;8.736;2023-05-06T02:27:09;12.20;99.90
54960;DHT22;40860;51.710;8.736;2023-05-06T02:31:14;12.10;99.90
54960;DHT22;40860;51.710;8.736;2023-05-06T02:35:17;12.10;99.90
54960;DHT22;40860;51.710;8.736;2023-05-06T02:39:20;12.10;99.90
54960;DHT22;40860;51.710;8.736;2023-05-06T02:43:23;12.00;99.90
54960;DHT22;40860;51.710;8.736;2023-05-06T02:47:27;12.00;99.90
54960;DHT22;40860;51.710;8.736;2023-05-06T02:51:30;12.00;99.90
54960;DHT22;40860;51.710;8.736;2023-05-06T02:55:33;12.00;99.90
54960;DHT22;40860;51.710;8.736;2023-05-06T02:59:36;11.90;99.90
54960;DHT22;40860;51.710;8.736;2023-05-06T03:03:40;11.90;99.90
54960;DHT22;40860;51.710;8.736;2023-05-06T03:07:43;11.80;99.90
54960;DHT22;40860;51.710;8.736;2023-05-06T03:11:46;11.70;99.90
54960;DHT22;40860;51.710;8.736;2023-05-06T03:15:51;11.70;99.90
54960;DHT22;40860;51.710;8.736;2023-05-06T03:19:57;11.70;99.90
54960;DHT22;40860;51.710;8.736;2023-05-06T03:24:00;11.60;99.90
54960;DHT22;40860;51.710;8.736;2023-05-06T03:28:04;11.60;99.90
54960;DHT22;40860;51.710;8.736;2023-05-06T03:32:09;11.60;99.90
54960;DHT22;40860;51.710;8.736;2023-05-06T03:36:17;11.60;99.90
54960;DHT22;40860;51.710;8.736;2023-05-06T03:40:21;11.60;99.90
54960;DHT22;40860;51.710;8.736;2023-05-06T03:44:25;11.50;99.90
54960;DHT22;40860;51.710;8.736;2023-05-06T03:48:28;11.50;99.90
54960;DHT22;40860;51.710;8.736;2023-05-06T03:52:33;11.40;99.90
54960;DHT22;40860;51.710;8.736;2023-05-06T03:56:36;11.40;99.90
54960;DHT22;40860;51.710;8.736;2023-05-06T04:00:39;11.40;99.90
54960;DHT22;40860;51.710;8.736;2023-05-06T04:04:42;11.30;99.90
54960;DHT22;40860;51.710;8.736;2023-05-06T04:08:47;11.20;99.90
54960;DHT22;40860;51.710;8.736;2023-05-06T04:12:51;11.10;99.90
54960;DHT22;40860;51.710;8.736;2023-05-06T04:16:59;11.00;99.90
54960;DHT22;40860;51.710;8.736;2023-05-06T04:21:02;11.00;99.90
54960;DHT22;40860;51.710;8.736;2023-05-06T04:25:10;11.00;99.90
54960;DHT22;40860;51.710;8.736;2023-05-06T04:29:14;10.90;99.90
54960;DHT22;40860;51.710;8.736;2023-05-06T04:33:28;10.90;99.90
54960;DHT22;40860;51.710;8.736;2023-05-06T04:37:32;10.90;99.90
54960;DHT22;40860;51.710;8.736;2023-05-06T04:41:45;10.80;99.90
54960;DHT22;40860;51.710;8.736;2023-05-06T04:45:52;10.80;99.90
54960;DHT22;40860;51.710;8.736;2023-05-06T04:50:00;10.80;99.90
54960;DHT22;40860;51.710;8.736;2023-05-06T04:54:04;10.80;99.90
54960;DHT22;40860;51.710;8.736;2023-05-06T04:58:08;10.90;99.90
54960;DHT22;40860;51.710;8.736;2023-05-06T05:02:12;11.00;99.90
54960;DHT22;40860;51.710;8.736;2023-05-06T05:06:16;11.10;99.90
54960;DHT22;40860;51.710;8.736;2023-05-06T05:10:20;11.20;99.90
54960;DHT22;40860;51.710;8.736;2023-05-06T05:14:26;11.40;99.90
54960;DHT22;40860;51.710;8.736;2023-05-06T05:18:29;11.50;99.90
54960;DHT22;40860;51.710;8.736;2023-05-06T05:22:37;11.70;99.90
54960;DHT22;40860;51.710;8.736;2023-05-06T05:26:40;11.90;99.90
54960;DHT22;40860;51.710;8.736;2023-05-06T05:30:45;13.10;99.90
54960;DHT22;40860;51.710;8.736;2023-05-06T05:34:48;16.50;99.90
54960;DHT22;40860;51.710;8.736;2023-05-06T05:38:54;18.90;98.80
54960;DHT22;40860;51.710;8.736;2023-05-06T05:43:00;19.80;94.50
54960;DHT22;40860;51.710;8.736;2023-05-06T05:47:11;19.60;92.60
54960;DHT22;40860;51.710;8.736;2023-05-06T05:51:14;19.60;91.10
54960;DHT22;40860;51.710;8.736;2023-05-06T05:55:18;18.50;91.40
54960;DHT22;40860;51.710;8.736;2023-05-06T05:59:22;18.80;92.10
54960;DHT22;40860;51.710;8.736;2023-05-06T06:03:28;18.90;91.20
54960;DHT22;40860;51.710;8.736;2023-05-06T06:07:31;18.70;90.40
54960;DHT22;40860;51.710;8.736;2023-05-06T06:11:37;18.30;92.00
54960;DHT22;40860;51.710;8.736;2023-05-06T06:15:40;17.50;91.20
54960;DHT22;40860;51.710;8.736;2023-05-06T06:19:45;17.20;92.70
54960;DHT22;40860;51.710;8.736;2023-05-06T06:23:48;17.30;92.90
54960;DHT22;40860;51.710;8.736;2023-05-06T06:27:53;17.20;93.10
54960;DHT22;40860;51.710;8.736;2023-05-06T06:31:58;17.60;93.50
54960;DHT22;40860;51.710;8.736;2023-05-06T06:36:02;18.40;91.20
54960;DHT22;40860;51.710;8.736;2023-05-06T06:40:07;17.30;91.90
54960;DHT22;40860;51.710;8.736;2023-05-06T06:44:10;16.40;93.40
54960;DHT22;40860;51.710;8.736;2023-05-06T06:48:13;15.70;94.50
54960;DHT22;40860;51.710;8.736;2023-05-06T06:52:18;15.10;96.50
54960;DHT22;40860;51.710;8.736;2023-05-06T06:56:21;15.00;98.30
54960;DHT22;40860;51.710;8.736;2023-05-06T07:00:24;14.90;97.60
54960;DHT22;40860;51.710;8.736;2023-05-06T07:04:27;14.70;98.50
54960;DHT22;40860;51.710;8.736;2023-05-06T07:08:31;15.10;99.10
54960;DHT22;40860;51.710;8.736;2023-05-06T07:12:34;15.20;97.80
54960;DHT22;40860;51.710;8.736;2023-05-06T07:16:37;15.10;98.00
54960;DHT22;40860;51.710;8.736;2023-05-06T07:20:40;16.60;96.70
54960;DHT22;40860;51.710;8.736;2023-05-06T07:24:46;17.40;94.60
54960;DHT22;40860;51.710;8.736;2023-05-06T07:28:49;16.90;93.70
54960;DHT22;40860;51.710;8.736;2023-05-06T07:32:52;16.30;95.40
54960;DHT22;40860;51.710;8.736;2023-05-06T07:36:55;18.10;95.30
54960;DHT22;40860;51.710;8.736;2023-05-06T07:41:00;20.30;90.70
54960;DHT22;40860;51.710;8.736;2023-05-06T07:45:04;21.60;84.10
54960;DHT22;40860;51.710;8.736;2023-05-06T07:49:08;21.80;78.10
54960;DHT22;40860;51.710;8.736;2023-05-06T07:53:11;21.80;76.50
54960;DHT22;40860;51.710;8.736;2023-05-06T07:57:16;21.50;73.90
54960;DHT22;40860;51.710;8.736;2023-05-06T08:01:18;21.20;76.00
54960;DHT22;40860;51.710;8.736;2023-05-06T08:05:21;20.60;79.10
54960;DHT22;40860;51.710;8.736;2023-05-06T08:09:24;20.80;78.20
54960;DHT22;40860;51.710;8.736;2023-05-06T08:13:28;20.90;81.80
54960;DHT22;40860;51.710;8.736;2023-05-06T08:17:34;21.30;81.20
54960;DHT22;40860;51.710;8.736;2023-05-06T08:21:36;21.50;76.20
54960;DHT22;40860;51.710;8.736;2023-05-06T08:25:40;21.70;76.30
54960;DHT22;40860;51.710;8.736;2023-05-06T08:29:44;22.00;72.30
54960;DHT22;40860;51.710;8.736;2023-05-06T08:33:47;21.20;72.40
54960;DHT22;40860;51.710;8.736;2023-05-06T08:37:57;20.80;73.00
54960;DHT22;40860;51.710;8.736;2023-05-06T08:42:02;20.60;73.40
54960;DHT22;40860;51.710;8.736;2023-05-06T08:46:07;20.80;77.70
54960;DHT22;40860;51.710;8.736;2023-05-06T08:50:11;21.40;77.50
54960;DHT22;40860;51.710;8.736;2023-05-06T08:54:14;21.60;71.20
54960;DHT22;40860;51.710;8.736;2023-05-06T08:58:17;21.60;69.50
54960;DHT22;40860;51.710;8.736;2023-05-06T09:02:22;21.70;70.50
54960;DHT22;40860;51.710;8.736;2023-05-06T09:06:25;22.00;72.20
54960;DHT22;40860;51.710;8.736;2023-05-06T09:10:31;22.00;68.00
54960;DHT22;40860;51.710;8.736;2023-05-06T09:14:34;21.50;70.10
54960;DHT22;40860;51.710;8.736;2023-05-06T09:18:39;21.80;69.50
54960;DHT22;40860;51.710;8.736;2023-05-06T09:22:42;22.00;68.10
54960;DHT22;40860;51.710;8.736;2023-05-06T09:26:46;22.10;65.30
54960;DHT22;40860;51.710;8.736;2023-05-06T09:30:49;21.60;62.20
54960;DHT22;40860;51.710;8.736;2023-05-06T09:34:54;21.60;64.90
54960;DHT22;40860;51.710;8.736;2023-05-06T09:38:57;22.00;64.70
54960;DHT22;40860;51.710;8.736;2023-05-06T09:43:01;22.00;62.20
54960;DHT22;40860;51.710;8.736;2023-05-06T09:47:06;21.90;62.50
54960;DHT22;40860;51.710;8.736;2023-05-06T09:51:10;22.00;63.60
54960;DHT22;40860;51.710;8.736;2023-05-06T09:55:15;21.90;63.20
54960;DHT22;40860;51.710;8.736;2023-05-06T09:59:19;22.30;60.80
54960;DHT22;40860;51.710;8.736;2023-05-06T10:03:22;22.20;59.00
54960;DHT22;40860;51.710;8.736;2023-05-06T10:07:28;22.00;59.60
54960;DHT22;40860;51.710;8.736;2023-05-06T10:11:31;22.50;60.20
54960;DHT22;40860;51.710;8.736;2023-05-06T10:15:35;23.00;59.70
54960;DHT22;40860;51.710;8.736;2023-05-06T10:19:41;23.30;58.00
54960;DHT22;40860;51.710;8.736;2023-05-06T10:23:50;23.20;57.20
54960;DHT22;40860;51.710;8.736;2023-05-06T10:27:57;22.50;57.40
54960;DHT22;40860;51.710;8.736;2023-05-06T10:32:01;22.20;60.30
54960;DHT22;40860;51.710;8.736;2023-05-06T10:36:14;21.90;59.60
54960;DHT22;40860;51.710;8.736;2023-05-06T10:40:22;21.50;59.10
54960;DHT22;40860;51.710;8.736;2023-05-06T10:44:57;21.80;59.00
54960;DHT22;40860;51.710;8.736;2023-05-06T10:49:15;21.60;58.90
54960;DHT22;40860;51.710;8.736;2023-05-06T10:53:54;21.70;60.00
54960;DHT22;40860;51.710;8.736;2023-05-06T10:58:05;21.40;60.00
54960;DHT22;40860;51.710;8.736;2023-05-06T11:02:08;21.40;60.90
54960;DHT22;40860;51.710;8.736;2023-05-06T11:49:29;22.10;57.50
54960;DHT22;40860;51.710;8.736;2023-05-06T11:53:32;22.20;57.10
54960;DHT22;40860;51.710;8.736;2023-05-06T11:57:34;21.90;57.60
54960;DHT22;40860;51.710;8.736;2023-05-06T12:01:40;21.40;58.80
54960;DHT22;40860;51.710;8.736;2023-05-06T12:05:45;21.40;59.10
54960;DHT22;40860;51.710;8.736;2023-05-06T12:09:49;21.40;58.50
54960;DHT22;40860;51.710;8.736;2023-05-06T12:13:52;21.50;59.70
54960;DHT22;40860;51.710;8.736;2023-05-06T12:17:55;21.90;59.70
54960;DHT22;40860;51.710;8.736;2023-05-06T12:22:16;22.40;58.80
54960;DHT22;40860;51.710;8.736;2023-05-06T12:26:19;22.20;58.40
54960;DHT22;40860;51.710;8.736;2023-05-06T12:30:29;22.10;55.90
54960;DHT22;40860;51.710;8.736;2023-05-06T12:34:36;22.10;56.10
54960;DHT22;40860;51.710;8.736;2023-05-06T12:38:48;22.10;57.40
54960;DHT22;40860;51.710;8.736;2023-05-06T12:42:54;22.20;56.60
54960;DHT22;40860;51.710;8.736;2023-05-06T12:46:58;22.40;56.20
54960;DHT22;40860;51.710;8.736;2023-05-06T12:51:16;22.50;54.20
54960;DHT22;40860;51.710;8.736;2023-05-06T12:55:20;22.60;54.40
54960;DHT22;40860;51.710;8.736;2023-05-06T12:59:24;22.50;52.70
54960;DHT22;40860;51.710;8.736;2023-05-06T13:03:28;22.60;53.70
54960;DHT22;40860;51.710;8.736;2023-05-06T13:07:31;22.70;55.30
54960;DHT22;40860;51.710;8.736;2023-05-06T13:11:35;22.70;53.40
54960;DHT22;40860;51.710;8.736;2023-05-06T13:15:38;22.90;52.90
54960;DHT22;40860;51.710;8.736;2023-05-06T13:19:42;22.60;51.50
54960;DHT22;40860;51.710;8.736;2023-05-06T13:23:57;22.10;52.40
54960;DHT22;40860;51.710;8.736;2023-05-06T13:28:01;22.30;53.10
54960;DHT22;40860;51.710;8.736;2023-05-06T13:32:04;22.50;52.90
54960;DHT22;40860;51.710;8.736;2023-05-06T13:36:09;22.60;52.10
54960;DHT22;40860;51.710;8.736;2023-05-06T13:40:13;22.70;52.20
54960;DHT22;40860;51.710;8.736;2023-05-06T13:44:21;22.40;52.50
54960;DHT22;40860;51.710;8.736;2023-05-06T13:48:25;22.50;52.90
54960;DHT22;40860;51.710;8.736;2023-05-06T13:52:30;22.70;52.60
54960;DHT22;40860;51.710;8.736;2023-05-06T13:56:33;22.80;51.80
54960;DHT22;40860;51.710;8.736;2023-05-06T14:00:37;22.80;52.80
54960;DHT22;40860;51.710;8.736;2023-05-06T14:04:41;22.90;51.20
54960;DHT22;40860;51.710;8.736;2023-05-06T14:08:44;23.00;51.20
54960;DHT22;40860;51.710;8.736;2023-05-06T14:12:47;23.10;52.00
54960;DHT22;40860;51.710;8.736;2023-05-06T14:16:51;23.00;50.90
54960;DHT22;40860;51.710;8.736;2023-05-06T14:20:55;22.70;53.00
54960;DHT22;40860;51.710;8.736;2023-05-06T14:24:58;22.70;51.50
54960;DHT22;40860;51.710;8.736;2023-05-06T14:29:01;22.30;51.80
54960;DHT22;40860;51.710;8.736;2023-05-06T14:33:06;22.20;53.30
54960;DHT22;40860;51.710;8.736;2023-05-06T14:37:09;22.30;52.80
54960;DHT22;40860;51.710;8.736;2023-05-06T14:41:11;22.20;51.90
54960;DHT22;40860;51.710;8.736;2023-05-06T14:45:15;22.30;50.80
54960;DHT22;40860;51.710;8.736;2023-05-06T14:49:19;22.20;52.90
54960;DHT22;40860;51.710;8.736;2023-05-06T14:53:22;22.40;52.50
54960;DHT22;40860;51.710;8.736;2023-05-06T14:57:25;22.90;54.30
54960;DHT22;40860;51.710;8.736;2023-05-06T15:01:28;23.40;51.40
54960;DHT22;40860;51.710;8.736;2023-05-06T15:05:34;23.60;50.30
54960;DHT22;40860;51.710;8.736;2023-05-06T15:09:37;23.80;51.10
54960;DHT22;40860;51.710;8.736;2023-05-06T15:13:44;24.00;51.20
54960;DHT22;40860;51.710;8.736;2023-05-06T15:17:47;24.30;51.40
54960;DHT22;40860;51.710;8.736;2023-05-06T15:21:54;24.00;51.80
54960;DHT22;40860;51.710;8.736;2023-05-06T15:25:58;24.10;51.70
54960;DHT22;40860;51.710;8.736;2023-05-06T15:30:01;24.40;51.10
54960;DHT22;40860;51.710;8.736;2023-05-06T15:34:05;24.10;50.30
54960;DHT22;40860;51.710;8.736;2023-05-06T15:38:09;24.00;51.90
54960;DHT22;40860;51.710;8.736;2023-05-06T15:42:13;23.70;53.50
54960;DHT22;40860;51.710;8.736;2023-05-06T15:46:15;23.60;53.20
54960;DHT22;40860;51.710;8.736;2023-05-06T15:50:19;23.40;52.20
54960;DHT22;40860;51.710;8.736;2023-05-06T15:54:35;23.20;51.80
54960;DHT22;40860;51.710;8.736;2023-05-06T15:58:40;22.90;52.00
54960;DHT22;40860;51.710;8.736;2023-05-06T16:02:43;22.60;53.50
54960;DHT22;40860;51.710;8.736;2023-05-06T16:06:46;22.70;53.40
54960;DHT22;40860;51.710;8.736;2023-05-06T16:10:51;22.70;53.70
54960;DHT22;40860;51.710;8.736;2023-05-06T16:14:54;22.30;53.80
54960;DHT22;40860;51.710;8.736;2023-05-06T16:18:57;22.10;55.60
54960;DHT22;40860;51.710;8.736;2023-05-06T16:23:00;22.00;54.70
54960;DHT22;40860;51.710;8.736;2023-05-06T16:27:05;21.90;55.10
54960;DHT22;40860;51.710;8.736;2023-05-06T16:31:08;21.80;54.60
54960;DHT22;40860;51.710;8.736;2023-05-06T16:35:11;21.60;55.40
54960;DHT22;40860;51.710;8.736;2023-05-06T16:39:14;21.40;55.40
54960;DHT22;40860;51.710;8.736;2023-05-06T16:43:19;21.10;55.10
54960;DHT22;40860;51.710;8.736;2023-05-06T16:47:21;21.00;55.20
54960;DHT22;40860;51.710;8.736;2023-05-06T16:51:25;20.90;56.00
54960;DHT22;40860;51.710;8.736;2023-05-06T16:55:27;20.80;56.00
54960;DHT22;40860;51.710;8.736;2023-05-06T16:59:31;20.80;56.80
54960;DHT22;40860;51.710;8.736;2023-05-06T17:03:34;20.60;56.90
54960;DHT22;40860;51.710;8.736;2023-05-06T17:07:38;20.50;57.60
54960;DHT22;40860;51.710;8.736;2023-05-06T17:11:41;20.40;57.70
54960;DHT22;40860;51.710;8.736;2023-05-06T17:15:49;20.30;57.90
54960;DHT22;40860;51.710;8.736;2023-05-06T17:19:52;20.20;59.80
54960;DHT22;40860;51.710;8.736;2023-05-06T17:23:55;20.10;60.60
54960;DHT22;40860;51.710;8.736;2023-05-06T17:27:57;19.90;61.50
54960;DHT22;40860;51.710;8.736;2023-05-06T17:32:02;19.70;62.90
54960;DHT22;40860;51.710;8.736;2023-05-06T17:36:05;19.50;64.10
54960;DHT22;40860;51.710;8.736;2023-05-06T17:40:09;19.50;64.70
54960;DHT22;40860;51.710;8.736;2023-05-06T17:44:13;19.40;65.10
54960;DHT22;40860;51.710;8.736;2023-05-06T17:48:20;19.20;65.70
54960;DHT22;40860;51.710;8.736;2023-05-06T17:52:24;19.20;66.20
54960;DHT22;40860;51.710;8.736;2023-05-06T17:56:28;19.10;66.70
54960;DHT22;40860;51.710;8.736;2023-05-06T18:00:31;19.00;67.30
54960;DHT22;40860;51.710;8.736;2023-05-06T18:04:35;18.90;68.30
54960;DHT22;40860;51.710;8.736;2023-05-06T18:08:38;18.80;68.80
54960;DHT22;40860;51.710;8.736;2023-05-06T18:12:41;18.70;70.00
54960;DHT22;40860;51.710;8.736;2023-05-06T18:16:46;18.60;70.90
54960;DHT22;40860;51.710;8.736;2023-05-06T18:20:50;18.60;71.90
54960;DHT22;40860;51.710;8.736;2023-05-06T18:24:53;18.60;72.40
54960;DHT22;40860;51.710;8.736;2023-05-06T18:28:56;18.40;73.00
54960;DHT22;40860;51.710;8.736;2023-05-06T18:32:59;18.40;73.60
54960;DHT22;40860;51.710;8.736;2023-05-06T18:37:04;18.30;73.90
54960;DHT22;40860;51.710;8.736;2023-05-06T18:41:07;18.30;74.60
54960;DHT22;40860;51.710;8.736;2023-05-06T18:45:10;18.20;74.80
54960;DHT22;40860;51.710;8.736;2023-05-06T18:49:14;18.10;75.60
54960;DHT22;40860;51.710;8.736;2023-05-06T18:53:18;18.00;76.30
54960;DHT22;40860;51.710;8.736;2023-05-06T18:57:21;17.90;77.10
54960;DHT22;40860;51.710;8.736;2023-05-06T19:01:27;17.90;77.90
54960;DHT22;40860;51.710;8.736;2023-05-06T19:05:30;17.80;78.30
54960;DHT22;40860;51.710;8.736;2023-05-06T19:09:35;17.70;78.70
54960;DHT22;40860;51.710;8.736;2023-05-06T19:13:43;17.70;79.20
54960;DHT22;40860;51.710;8.736;2023-05-06T19:17:47;17.70;79.60
54960;DHT22;40860;51.710;8.736;2023-05-06T19:21:50;17.60;79.80
54960;DHT22;40860;51.710;8.736;2023-05-06T19:25:54;17.60;80.40
54960;DHT22;40860;51.710;8.736;2023-05-06T19:29:57;17.60;81.50
54960;DHT22;40860;51.710;8.736;2023-05-06T19:34:01;17.50;82.40
54960;DHT22;40860;51.710;8.736;2023-05-06T19:38:05;17.40;83.00
54960;DHT22;40860;51.710;8.736;2023-05-06T19:42:10;17.20;85.10
54960;DHT22;40860;51.710;8.736;2023-05-06T19:46:15;17.00;89.00
54960;DHT22;40860;51.710;8.736;2023-05-06T19:50:18;16.80;91.30
54960;DHT22;40860;51.710;8.736;2023-05-06T19:54:21;16.40;93.70
54960;DHT22;40860;51.710;8.736;2023-05-06T19:58:25;16.10;95.30
54960;DHT22;40860;51.710;8.736;2023-05-06T20:02:29;16.00;96.70
54960;DHT22;40860;51.710;8.736;2023-05-06T20:06:32;15.90;97.20
54960;DHT22;40860;51.710;8.736;2023-05-06T20:10:36;15.80;98.00
54960;DHT22;40860;51.710;8.736;2023-05-06T20:14:41;15.70;98.80
54960;DHT22;40860;51.710;8.736;2023-05-06T20:18:43;15.60;99.40
54960;DHT22;40860;51.710;8.736;2023-05-06T20:22:48;15.50;99.90
54960;DHT22;40860;51.710;8.736;2023-05-06T20:26:51;15.40;99.90
54960;DHT22;40860;51.710;8.736;2023-05-06T20:30:55;15.30;99.90
54960;DHT22;40860;51.710;8.736;2023-05-06T20:35:00;15.20;99.90
54960;DHT22;40860;51.710;8.736;2023-05-06T20:39:03;15.30;99.90
54960;DHT22;40860;51.710;8.736;2023-05-06T20:43:07;15.30;99.90
54960;DHT22;40860;51.710;8.736;2023-05-06T20:47:11;15.20;99.90
54960;DHT22;40860;51.710;8.736;2023-05-06T20:51:14;15.20;99.90
54960;DHT22;40860;51.710;8.736;2023-05-06T20:55:17;15.20;99.90
54960;DHT22;40860;51.710;8.736;2023-05-06T20:59:23;15.20;99.90
54960;DHT22;40860;51.710;8.736;2023-05-06T21:03:28;15.20;99.90
54960;DHT22;40860;51.710;8.736;2023-05-06T21:07:32;15.30;99.90
54960;DHT22;40860;51.710;8.736;2023-05-06T21:11:35;15.20;99.90
54960;DHT22;40860;51.710;8.736;2023-05-06T21:15:38;15.20;99.90
54960;DHT22;40860;51.710;8.736;2023-05-06T21:19:42;15.20;99.90
54960;DHT22;40860;51.710;8.736;2023-05-06T21:23:45;15.10;99.90
54960;DHT22;40860;51.710;8.736;2023-05-06T21:27:48;15.10;99.90
54960;DHT22;40860;51.710;8.736;2023-05-06T21:31:51;15.10;99.90
54960;DHT22;40860;51.710;8.736;2023-05-06T21:35:55;15.10;99.90
54960;DHT22;40860;51.710;8.736;2023-05-06T21:39:59;15.10;99.90
54960;DHT22;40860;51.710;8.736;2023-05-06T21:44:06;15.10;99.90
54960;DHT22;40860;51.710;8.736;2023-05-06T21:48:09;15.10;99.90
54960;DHT22;40860;51.710;8.736;2023-05-06T21:52:13;15.10;99.90
54960;DHT22;40860;51.710;8.736;2023-05-06T21:56:16;15.10;99.90
54960;DHT22;40860;51.710;8.736;2023-05-06T22:00:19;15.10;99.90
54960;DHT22;40860;51.710;8.736;2023-05-06T22:04:23;15.10;99.90
54960;DHT22;40860;51.710;8.736;2023-05-06T22:08:28;15.00;99.90
54960;DHT22;40860;51.710;8.736;2023-05-06T22:12:31;15.00;99.90
54960;DHT22;40860;51.710;8.736;2023-05-06T22:16:34;15.00;99.90
54960;DHT22;40860;51.710;8.736;2023-05-06T22:20:38;14.90;99.90
54960;DHT22;40860;51.710;8.736;2023-05-06T22:24:43;14.90;99.90
54960;DHT22;40860;51.710;8.736;2023-05-06T22:28:46;14.90;99.90
54960;DHT22;40860;51.710;8.736;2023-05-06T22:32:49;14.90;99.90
54960;DHT22;40860;51.710;8.736;2023-05-06T22:36:51;14.90;99.90
54960;DHT22;40860;51.710;8.736;2023-05-06T22:40:56;14.90;99.90
54960;DHT22;40860;51.710;8.736;2023-05-06T22:45:00;14.90;99.90
54960;DHT22;40860;51.710;8.736;2023-05-06T22:49:03;14.90;99.90
54960;DHT22;40860;51.710;8.736;2023-05-06T22:53:06;14.90;99.90
54960;DHT22;40860;51.710;8.736;2023-05-06T22:57:17;14.90;99.90
54960;DHT22;40860;51.710;8.736;2023-05-06T23:01:23;14.90;99.90
54960;DHT22;40860;51.710;8.736;2023-05-06T23:05:32;14.90;99.90
54960;DHT22;40860;51.710;8.736;2023-05-06T23:09:35;14.90;99.90
54960;DHT22;40860;51.710;8.736;2023-05-06T23:13:39;14.90;99.90
54960;DHT22;40860;51.710;8.736;2023-05-06T23:22:12;14.80;99.90
54960;DHT22;40860;51.710;8.736;2023-05-06T23:26:15;14.80;99.80
54960;DHT22;40860;51.710;8.736;2023-05-06T23:30:19;14.80;99.60
54960;DHT22;40860;51.710;8.736;2023-05-06T23:34:22;14.80;99.40
54960;DHT22;40860;51.710;8.736;2023-05-06T23:38:25;14.70;99.50
54960;DHT22;40860;51.710;8.736;2023-05-06T23:42:28;14.70;99.60
54960;DHT22;40860;51.710;8.736;2023-05-06T23:46:32;14.60;99.90
54960;DHT22;40860;51.710;8.736;2023-05-06T23:50:35;14.60;99.90
54960;DHT22;40860;51.710;8.736;2023-05-06T23:54:38;14.60;99.90
54960;DHT22;40860;51.710;8.736;2023-05-06T23:58:41;14.60;99.90
